sensor_id;sensor_type;location;lat;lon;timestamp;temperature;humidity
18998;DHT22;9632;51.018;4.284;2022-11-04T00:01:49;12.30;99.90
18998;DHT22;9632;51.018;4.284;2022-11-04T00:04:16;12.30;99.90
18998;DHT22;9632;51.018;4.284;2022-11-04T00:06:42;12.30;99.90
18998;DHT22;9632;51.018;4.284;2022-11-04T00:09:11;12.20;99.90
18998;DHT22;9632;51.018;4.284;2022-11-04T00:11:37;12.20;99.90
18998;DHT22;9632;51.018;4.284;2022-11-04T00:14:21;12.10;99.90
18998;DHT22;9632;51.018;4.284;2022-11-04T00:16:47;12.10;99.90
18998;DHT22;9632;51.018;4.284;2022-11-04T00:19:31;12.10;99.90
18998;DHT22;9632;51.018;4.284;2022-11-04T00:22:26;12.10;99.90
18998;DHT22;9632;51.018;4.284;2022-11-04T00:25:11;12.00;99.90
18998;DHT22;9632;51.018;4.284;2022-11-04T00:28:15;12.00;99.90
18998;DHT22;9632;51.018;4.284;2022-11-04T00:31:01;12.00;99.90
18998;DHT22;9632;51.018;4.284;2022-11-04T00:33:49;12.10;99.90
18998;DHT22;9632;51.018;4.284;2022-11-04T00:36:16;12.10;99.90
18998;DHT22;9632;51.018;4.284;2022-11-04T00:38:41;12.10;99.90
18998;DHT22;9632;51.018;4.284;2022-11-04T00:41:07;12.00;99.90
18998;DHT22;9632;51.018;4.284;2022-11-04T00:43:53;12.00;99.90
18998;DHT22;9632;51.018;4.284;2022-11-04T00:46:20;11.90;99.90
18998;DHT22;9632;51.018;4.284;2022-11-04T00:48:45;12.00;99.90
18998;DHT22;9632;51.018;4.284;2022-11-04T00:51:11;12.00;99.90
18998;DHT22;9632;51.018;4.284;2022-11-04T00:53:37;12.00;99.90
18998;DHT22;9632;51.018;4.284;2022-11-04T00:56:02;11.90;99.90
18998;DHT22;9632;51.018;4.284;2022-11-04T00:58:28;12.00;99.90
18998;DHT22;9632;51.018;4.284;2022-11-04T01:00:54;12.10;99.90
18998;DHT22;9632;51.018;4.284;2022-11-04T01:03:19;12.00;99.90
18998;DHT22;9632;51.018;4.284;2022-11-04T01:05:45;12.00;99.90
18998;DHT22;9632;51.018;4.284;2022-11-04T01:08:11;12.00;99.90
18998;DHT22;9632;51.018;4.284;2022-11-04T01:10:36;12.00;99.90
18998;DHT22;9632;51.018;4.284;2022-11-04T01:13:12;12.00;99.90
18998;DHT22;9632;51.018;4.284;2022-11-04T01:15:37;11.90;99.90
18998;DHT22;9632;51.018;4.284;2022-11-04T01:18:03;11.90;99.90
18998;DHT22;9632;51.018;4.284;2022-11-04T01:20:30;11.90;99.90
18998;DHT22;9632;51.018;4.284;2022-11-04T01:22:56;11.90;99.90
18998;DHT22;9632;51.018;4.284;2022-11-04T01:25:21;12.00;99.90
18998;DHT22;9632;51.018;4.284;2022-11-04T01:27:47;12.00;99.90
18998;DHT22;9632;51.018;4.284;2022-11-04T01:30:13;11.90;99.90
18998;DHT22;9632;51.018;4.284;2022-11-04T01:32:38;11.90;99.90
18998;DHT22;9632;51.018;4.284;2022-11-04T01:35:04;11.90;99.90
18998;DHT22;9632;51.018;4.284;2022-11-04T01:37:30;11.90;99.90
18998;DHT22;9632;51.018;4.284;2022-11-04T01:39:56;11.90;99.90
18998;DHT22;9632;51.018;4.284;2022-11-04T01:42:22;11.90;99.90
18998;DHT22;9632;51.018;4.284;2022-11-04T01:47:29;12.00;99.90
18998;DHT22;9632;51.018;4.284;2022-11-04T01:50:23;12.00;99.90
18998;DHT22;9632;51.018;4.284;2022-11-04T01:55:33;11.90;99.90
18998;DHT22;9632;51.018;4.284;2022-11-04T01:58:03;11.90;99.90
18998;DHT22;9632;51.018;4.284;2022-11-04T02:00:31;11.90;99.90
18998;DHT22;9632;51.018;4.284;2022-11-04T02:05:29;12.00;99.90
18998;DHT22;9632;51.018;4.284;2022-11-04T02:07:57;12.00;99.90
18998;DHT22;9632;51.018;4.284;2022-11-04T02:10:28;12.00;99.90
18998;DHT22;9632;51.018;4.284;2022-11-04T02:12:55;12.00;99.90
18998;DHT22;9632;51.018;4.284;2022-11-04T02:29:17;11.90;99.90
18998;DHT22;9632;51.018;4.284;2022-11-04T02:40:22;11.80;99.90
18998;DHT22;9632;51.018;4.284;2022-11-04T02:43:09;11.80;99.90
18998;DHT22;9632;51.018;4.284;2022-11-04T02:45:41;11.80;99.90
18998;DHT22;9632;51.018;4.284;2022-11-04T02:53:26;11.80;99.90
18998;DHT22;9632;51.018;4.284;2022-11-04T02:55:55;11.80;99.90
18998;DHT22;9632;51.018;4.284;2022-11-04T02:58:36;11.90;99.90
18998;DHT22;9632;51.018;4.284;2022-11-04T03:01:04;11.90;99.90
18998;DHT22;9632;51.018;4.284;2022-11-04T03:03:36;11.90;99.90
18998;DHT22;9632;51.018;4.284;2022-11-04T03:06:04;11.90;99.90
18998;DHT22;9632;51.018;4.284;2022-11-04T03:08:39;11.90;99.90
18998;DHT22;9632;51.018;4.284;2022-11-04T03:11:18;11.80;99.90
18998;DHT22;9632;51.018;4.284;2022-11-04T03:14:23;11.80;99.90
18998;DHT22;9632;51.018;4.284;2022-11-04T03:16:51;11.80;99.90
18998;DHT22;9632;51.018;4.284;2022-11-04T03:22:14;11.90;99.90
18998;DHT22;9632;51.018;4.284;2022-11-04T03:24:42;11.90;99.90
18998;DHT22;9632;51.018;4.284;2022-11-04T03:29:48;11.90;99.90
18998;DHT22;9632;51.018;4.284;2022-11-04T03:34:57;11.90;99.90
18998;DHT22;9632;51.018;4.284;2022-11-04T03:37:22;12.00;99.90
18998;DHT22;9632;51.018;4.284;2022-11-04T03:39:48;12.00;99.90
18998;DHT22;9632;51.018;4.284;2022-11-04T03:42:14;12.00;99.90
18998;DHT22;9632;51.018;4.284;2022-11-04T03:44:54;12.00;99.90
18998;DHT22;9632;51.018;4.284;2022-11-04T03:47:22;12.00;99.90
18998;DHT22;9632;51.018;4.284;2022-11-04T03:49:50;12.10;99.90
18998;DHT22;9632;51.018;4.284;2022-11-04T03:52:17;12.10;99.90
18998;DHT22;9632;51.018;4.284;2022-11-04T03:54:44;12.10;99.90
18998;DHT22;9632;51.018;4.284;2022-11-04T03:57:36;12.10;99.90
18998;DHT22;9632;51.018;4.284;2022-11-04T04:00:05;12.10;99.90
18998;DHT22;9632;51.018;4.284;2022-11-04T04:02:38;12.10;99.90
18998;DHT22;9632;51.018;4.284;2022-11-04T04:07:54;12.20;99.90
18998;DHT22;9632;51.018;4.284;2022-11-04T04:10:32;12.20;99.90
18998;DHT22;9632;51.018;4.284;2022-11-04T04:18:26;12.20;99.90
18998;DHT22;9632;51.018;4.284;2022-11-04T04:20:55;12.30;99.90
18998;DHT22;9632;51.018;4.284;2022-11-04T04:23:26;12.30;99.90
18998;DHT22;9632;51.018;4.284;2022-11-04T04:26:12;12.30;99.90
18998;DHT22;9632;51.018;4.284;2022-11-04T04:28:58;12.30;99.90
18998;DHT22;9632;51.018;4.284;2022-11-04T04:31:28;12.30;99.90
18998;DHT22;9632;51.018;4.284;2022-11-04T04:34:13;12.30;99.90
18998;DHT22;9632;51.018;4.284;2022-11-04T04:39:26;12.30;99.90
18998;DHT22;9632;51.018;4.284;2022-11-04T04:42:11;12.30;99.90
18998;DHT22;9632;51.018;4.284;2022-11-04T04:44:56;12.30;99.90
18998;DHT22;9632;51.018;4.284;2022-11-04T04:47:26;12.30;99.90
18998;DHT22;9632;51.018;4.284;2022-11-04T04:49:55;12.30;99.90
18998;DHT22;9632;51.018;4.284;2022-11-04T04:52:24;12.30;99.90
18998;DHT22;9632;51.018;4.284;2022-11-04T04:54:51;12.40;99.90
18998;DHT22;9632;51.018;4.284;2022-11-04T04:57:16;12.40;99.90
18998;DHT22;9632;51.018;4.284;2022-11-04T04:59:42;12.30;99.90
18998;DHT22;9632;51.018;4.284;2022-11-04T05:02:07;12.30;99.90
18998;DHT22;9632;51.018;4.284;2022-11-04T05:04:33;12.30;99.90
18998;DHT22;9632;51.018;4.284;2022-11-04T05:06:59;12.30;99.90
18998;DHT22;9632;51.018;4.284;2022-11-04T05:09:24;12.30;99.90
18998;DHT22;9632;51.018;4.284;2022-11-04T05:11:50;12.40;99.90
18998;DHT22;9632;51.018;4.284;2022-11-04T05:14:16;12.40;99.90
18998;DHT22;9632;51.018;4.284;2022-11-04T05:16:42;12.40;99.90
18998;DHT22;9632;51.018;4.284;2022-11-04T05:19:07;12.40;99.90
18998;DHT22;9632;51.018;4.284;2022-11-04T05:21:33;12.40;99.90
18998;DHT22;9632;51.018;4.284;2022-11-04T05:23:59;12.40;99.90
18998;DHT22;9632;51.018;4.284;2022-11-04T05:26:24;12.50;99.90
18998;DHT22;9632;51.018;4.284;2022-11-04T05:28:50;12.50;99.90
18998;DHT22;9632;51.018;4.284;2022-11-04T05:31:15;12.40;99.90
18998;DHT22;9632;51.018;4.284;2022-11-04T05:33:41;12.50;99.90
18998;DHT22;9632;51.018;4.284;2022-11-04T05:36:09;12.50;99.90
18998;DHT22;9632;51.018;4.284;2022-11-04T05:38:35;12.50;99.90
18998;DHT22;9632;51.018;4.284;2022-11-04T05:41:02;12.50;99.90
18998;DHT22;9632;51.018;4.284;2022-11-04T05:43:27;12.50;99.90
18998;DHT22;9632;51.018;4.284;2022-11-04T05:45:53;12.50;99.90
18998;DHT22;9632;51.018;4.284;2022-11-04T05:48:19;12.50;99.90
18998;DHT22;9632;51.018;4.284;2022-11-04T05:50:45;12.50;99.90
18998;DHT22;9632;51.018;4.284;2022-11-04T05:53:11;12.50;99.90
18998;DHT22;9632;51.018;4.284;2022-11-04T05:55:36;12.50;99.90
18998;DHT22;9632;51.018;4.284;2022-11-04T05:58:02;12.50;99.90
18998;DHT22;9632;51.018;4.284;2022-11-04T06:00:28;12.50;99.90
18998;DHT22;9632;51.018;4.284;2022-11-04T06:02:54;12.50;99.90
18998;DHT22;9632;51.018;4.284;2022-11-04T06:05:23;12.50;99.90
18998;DHT22;9632;51.018;4.284;2022-11-04T06:07:49;12.50;99.90
18998;DHT22;9632;51.018;4.284;2022-11-04T06:10:14;12.60;99.90
18998;DHT22;9632;51.018;4.284;2022-11-04T06:12:40;12.60;99.90
18998;DHT22;9632;51.018;4.284;2022-11-04T06:15:06;12.60;99.90
18998;DHT22;9632;51.018;4.284;2022-11-04T06:17:32;12.60;99.90
18998;DHT22;9632;51.018;4.284;2022-11-04T06:19:58;12.60;99.90
18998;DHT22;9632;51.018;4.284;2022-11-04T06:22:24;12.60;99.90
18998;DHT22;9632;51.018;4.284;2022-11-04T06:24:49;12.60;99.90
18998;DHT22;9632;51.018;4.284;2022-11-04T06:27:15;12.60;99.90
18998;DHT22;9632;51.018;4.284;2022-11-04T06:29:41;12.60;99.90
18998;DHT22;9632;51.018;4.284;2022-11-04T06:32:10;12.60;99.90
18998;DHT22;9632;51.018;4.284;2022-11-04T06:34:36;12.60;99.90
18998;DHT22;9632;51.018;4.284;2022-11-04T06:37:02;12.60;99.90
18998;DHT22;9632;51.018;4.284;2022-11-04T06:39:28;12.60;99.90
18998;DHT22;9632;51.018;4.284;2022-11-04T06:41:54;12.70;99.90
18998;DHT22;9632;51.018;4.284;2022-11-04T06:44:20;12.70;99.90
18998;DHT22;9632;51.018;4.284;2022-11-04T06:46:45;12.70;99.90
18998;DHT22;9632;51.018;4.284;2022-11-04T06:49:19;12.70;99.90
18998;DHT22;9632;51.018;4.284;2022-11-04T06:51:46;12.70;99.90
18998;DHT22;9632;51.018;4.284;2022-11-04T06:54:12;12.70;99.90
18998;DHT22;9632;51.018;4.284;2022-11-04T06:56:38;12.70;99.90
18998;DHT22;9632;51.018;4.284;2022-11-04T06:59:04;12.70;99.90
18998;DHT22;9632;51.018;4.284;2022-11-04T07:01:33;12.70;99.90
18998;DHT22;9632;51.018;4.284;2022-11-04T07:03:59;12.80;99.90
18998;DHT22;9632;51.018;4.284;2022-11-04T07:06:27;12.70;99.90
18998;DHT22;9632;51.018;4.284;2022-11-04T07:08:56;12.70;99.90
18998;DHT22;9632;51.018;4.284;2022-11-04T07:11:22;12.70;99.90
18998;DHT22;9632;51.018;4.284;2022-11-04T07:13:49;12.70;99.90
18998;DHT22;9632;51.018;4.284;2022-11-04T07:16:15;12.70;99.90
18998;DHT22;9632;51.018;4.284;2022-11-04T07:18:41;12.70;99.90
18998;DHT22;9632;51.018;4.284;2022-11-04T07:21:08;12.80;99.90
18998;DHT22;9632;51.018;4.284;2022-11-04T07:23:34;12.70;99.90
18998;DHT22;9632;51.018;4.284;2022-11-04T07:26:01;12.80;99.90
18998;DHT22;9632;51.018;4.284;2022-11-04T07:28:26;12.80;99.90
18998;DHT22;9632;51.018;4.284;2022-11-04T07:30:58;12.70;99.90
18998;DHT22;9632;51.018;4.284;2022-11-04T07:33:25;12.70;99.90
18998;DHT22;9632;51.018;4.284;2022-11-04T07:35:52;12.80;99.90
18998;DHT22;9632;51.018;4.284;2022-11-04T07:38:18;12.70;99.90
18998;DHT22;9632;51.018;4.284;2022-11-04T07:40:44;12.70;99.90
18998;DHT22;9632;51.018;4.284;2022-11-04T07:43:09;12.80;99.90
18998;DHT22;9632;51.018;4.284;2022-11-04T07:45:35;12.80;99.90
18998;DHT22;9632;51.018;4.284;2022-11-04T07:48:01;12.80;99.90
18998;DHT22;9632;51.018;4.284;2022-11-04T07:50:26;12.80;99.90
18998;DHT22;9632;51.018;4.284;2022-11-04T07:52:52;12.90;99.90
18998;DHT22;9632;51.018;4.284;2022-11-04T07:55:18;12.90;99.90
18998;DHT22;9632;51.018;4.284;2022-11-04T07:57:45;12.90;99.90
18998;DHT22;9632;51.018;4.284;2022-11-04T08:00:12;12.90;99.90
18998;DHT22;9632;51.018;4.284;2022-11-04T08:02:40;12.90;99.90
18998;DHT22;9632;51.018;4.284;2022-11-04T08:05:07;12.90;99.90
18998;DHT22;9632;51.018;4.284;2022-11-04T08:07:32;13.00;99.90
18998;DHT22;9632;51.018;4.284;2022-11-04T08:09:58;12.90;99.90
18998;DHT22;9632;51.018;4.284;2022-11-04T08:12:24;13.00;99.90
18998;DHT22;9632;51.018;4.284;2022-11-04T08:14:50;13.00;99.90
18998;DHT22;9632;51.018;4.284;2022-11-04T08:17:16;13.00;99.90
18998;DHT22;9632;51.018;4.284;2022-11-04T08:19:41;13.10;99.90
18998;DHT22;9632;51.018;4.284;2022-11-04T08:22:07;13.10;99.90
18998;DHT22;9632;51.018;4.284;2022-11-04T08:24:33;13.10;99.90
18998;DHT22;9632;51.018;4.284;2022-11-04T08:27:00;13.10;99.90
18998;DHT22;9632;51.018;4.284;2022-11-04T08:29:26;13.20;99.90
18998;DHT22;9632;51.018;4.284;2022-11-04T08:31:51;13.20;99.90
18998;DHT22;9632;51.018;4.284;2022-11-04T08:34:17;13.20;99.90
18998;DHT22;9632;51.018;4.284;2022-11-04T08:36:44;13.20;99.90
18998;DHT22;9632;51.018;4.284;2022-11-04T08:39:10;13.30;99.90
18998;DHT22;9632;51.018;4.284;2022-11-04T08:41:38;13.30;99.90
18998;DHT22;9632;51.018;4.284;2022-11-04T08:44:06;13.30;99.90
18998;DHT22;9632;51.018;4.284;2022-11-04T08:46:35;13.40;99.90
18998;DHT22;9632;51.018;4.284;2022-11-04T08:49:02;13.40;99.90
18998;DHT22;9632;51.018;4.284;2022-11-04T08:51:29;13.40;99.90
18998;DHT22;9632;51.018;4.284;2022-11-04T08:53:55;13.50;99.90
18998;DHT22;9632;51.018;4.284;2022-11-04T08:56:22;13.50;99.90
18998;DHT22;9632;51.018;4.284;2022-11-04T08:58:48;13.50;99.90
18998;DHT22;9632;51.018;4.284;2022-11-04T09:01:15;13.50;99.90
18998;DHT22;9632;51.018;4.284;2022-11-04T09:03:41;13.60;99.90
18998;DHT22;9632;51.018;4.284;2022-11-04T09:06:11;13.60;99.90
18998;DHT22;9632;51.018;4.284;2022-11-04T09:08:37;13.60;99.90
18998;DHT22;9632;51.018;4.284;2022-11-04T09:11:09;13.70;99.90
18998;DHT22;9632;51.018;4.284;2022-11-04T09:13:35;13.70;99.90
18998;DHT22;9632;51.018;4.284;2022-11-04T09:16:01;13.80;99.90
18998;DHT22;9632;51.018;4.284;2022-11-04T09:18:27;13.80;99.90
18998;DHT22;9632;51.018;4.284;2022-11-04T09:20:53;13.80;99.90
18998;DHT22;9632;51.018;4.284;2022-11-04T09:23:18;13.90;99.90
18998;DHT22;9632;51.018;4.284;2022-11-04T09:25:44;14.00;99.90
18998;DHT22;9632;51.018;4.284;2022-11-04T09:28:10;14.00;99.90
18998;DHT22;9632;51.018;4.284;2022-11-04T09:30:36;14.00;99.90
18998;DHT22;9632;51.018;4.284;2022-11-04T09:33:02;14.00;99.90
18998;DHT22;9632;51.018;4.284;2022-11-04T09:35:28;14.00;99.90
18998;DHT22;9632;51.018;4.284;2022-11-04T09:37:54;14.00;99.90
18998;DHT22;9632;51.018;4.284;2022-11-04T09:40:22;14.00;99.90
18998;DHT22;9632;51.018;4.284;2022-11-04T09:42:57;14.00;99.90
18998;DHT22;9632;51.018;4.284;2022-11-04T09:45:30;14.00;99.90
18998;DHT22;9632;51.018;4.284;2022-11-04T09:48:05;14.00;99.90
18998;DHT22;9632;51.018;4.284;2022-11-04T09:50:43;14.00;99.90
18998;DHT22;9632;51.018;4.284;2022-11-04T09:53:20;14.00;99.90
18998;DHT22;9632;51.018;4.284;2022-11-04T09:58:16;14.00;99.90
18998;DHT22;9632;51.018;4.284;2022-11-04T10:00:44;14.10;99.90
18998;DHT22;9632;51.018;4.284;2022-11-04T10:03:29;14.10;99.90
18998;DHT22;9632;51.018;4.284;2022-11-04T10:15:00;14.10;99.90
18998;DHT22;9632;51.018;4.284;2022-11-04T10:26:09;14.20;99.90
18998;DHT22;9632;51.018;4.284;2022-11-04T10:28:43;14.10;99.90
18998;DHT22;9632;51.018;4.284;2022-11-04T10:31:16;14.10;99.90
18998;DHT22;9632;51.018;4.284;2022-11-04T10:33:52;14.10;99.90
18998;DHT22;9632;51.018;4.284;2022-11-04T10:36:19;14.20;99.90
18998;DHT22;9632;51.018;4.284;2022-11-04T10:38:50;14.20;99.90
18998;DHT22;9632;51.018;4.284;2022-11-04T10:43:45;14.20;99.90
18998;DHT22;9632;51.018;4.284;2022-11-04T10:51:58;14.30;99.90
18998;DHT22;9632;51.018;4.284;2022-11-04T10:54:25;14.30;99.90
18998;DHT22;9632;51.018;4.284;2022-11-04T10:56:53;14.30;99.90
18998;DHT22;9632;51.018;4.284;2022-11-04T10:59:26;14.30;99.90
18998;DHT22;9632;51.018;4.284;2022-11-04T11:01:58;14.30;99.90
18998;DHT22;9632;51.018;4.284;2022-11-04T11:04:31;14.30;99.90
18998;DHT22;9632;51.018;4.284;2022-11-04T11:06:59;14.30;99.90
18998;DHT22;9632;51.018;4.284;2022-11-04T11:09:29;14.30;99.90
18998;DHT22;9632;51.018;4.284;2022-11-04T11:14:38;14.30;99.90
18998;DHT22;9632;51.018;4.284;2022-11-04T11:17:24;14.40;99.90
18998;DHT22;9632;51.018;4.284;2022-11-04T11:20:21;14.30;99.90
18998;DHT22;9632;51.018;4.284;2022-11-04T11:22:48;14.30;99.90
18998;DHT22;9632;51.018;4.284;2022-11-04T11:25:29;14.30;99.90
18998;DHT22;9632;51.018;4.284;2022-11-04T11:28:04;14.30;99.90
18998;DHT22;9632;51.018;4.284;2022-11-04T11:30:32;14.30;99.90
18998;DHT22;9632;51.018;4.284;2022-11-04T11:33:14;14.30;99.90
18998;DHT22;9632;51.018;4.284;2022-11-04T11:35:50;14.30;99.90
18998;DHT22;9632;51.018;4.284;2022-11-04T11:38:21;14.30;99.90
18998;DHT22;9632;51.018;4.284;2022-11-04T11:40:49;14.30;99.90
18998;DHT22;9632;51.018;4.284;2022-11-04T11:43:26;14.30;99.90
18998;DHT22;9632;51.018;4.284;2022-11-04T11:45:53;14.30;99.90
18998;DHT22;9632;51.018;4.284;2022-11-04T11:50:55;14.40;99.90
18998;DHT22;9632;51.018;4.284;2022-11-04T11:53:24;14.40;99.90
18998;DHT22;9632;51.018;4.284;2022-11-04T12:01:16;14.40;99.90
18998;DHT22;9632;51.018;4.284;2022-11-04T12:03:45;14.30;99.90
18998;DHT22;9632;51.018;4.284;2022-11-04T12:09:18;14.30;99.90
18998;DHT22;9632;51.018;4.284;2022-11-04T12:12:14;14.40;99.90
18998;DHT22;9632;51.018;4.284;2022-11-04T12:15:24;14.40;99.90
18998;DHT22;9632;51.018;4.284;2022-11-04T12:23:29;14.40;99.90
18998;DHT22;9632;51.018;4.284;2022-11-04T12:31:50;14.50;99.90
18998;DHT22;9632;51.018;4.284;2022-11-04T12:54:23;14.90;99.90
18998;DHT22;9632;51.018;4.284;2022-11-04T12:57:40;14.90;99.90
18998;DHT22;9632;51.018;4.284;2022-11-04T13:00:14;14.90;99.90
18998;DHT22;9632;51.018;4.284;2022-11-04T13:02:48;14.90;99.90
18998;DHT22;9632;51.018;4.284;2022-11-04T13:08:03;14.90;99.90
18998;DHT22;9632;51.018;4.284;2022-11-04T13:13:16;14.90;99.90
18998;DHT22;9632;51.018;4.284;2022-11-04T13:15:48;14.90;99.90
18998;DHT22;9632;51.018;4.284;2022-11-04T13:18:18;14.90;99.90
18998;DHT22;9632;51.018;4.284;2022-11-04T13:20:56;14.90;99.90
18998;DHT22;9632;51.018;4.284;2022-11-04T13:23:40;14.90;99.90
18998;DHT22;9632;51.018;4.284;2022-11-04T13:26:15;14.80;99.90
18998;DHT22;9632;51.018;4.284;2022-11-04T13:28:44;14.80;99.90
18998;DHT22;9632;51.018;4.284;2022-11-04T13:31:44;14.80;99.90
18998;DHT22;9632;51.018;4.284;2022-11-04T13:37:28;14.90;99.90
18998;DHT22;9632;51.018;4.284;2022-11-04T13:39:50;14.90;99.90
18998;DHT22;9632;51.018;4.284;2022-11-04T13:45:12;14.90;99.90
18998;DHT22;9632;51.018;4.284;2022-11-04T13:50:36;14.80;99.90
18998;DHT22;9632;51.018;4.284;2022-11-04T13:53:05;14.90;99.90
18998;DHT22;9632;51.018;4.284;2022-11-04T13:55:32;14.90;99.90
18998;DHT22;9632;51.018;4.284;2022-11-04T13:58:01;14.90;99.90
18998;DHT22;9632;51.018;4.284;2022-11-04T14:00:30;14.70;99.90
18998;DHT22;9632;51.018;4.284;2022-11-04T14:02:58;14.60;99.90
18998;DHT22;9632;51.018;4.284;2022-11-04T14:18:45;14.00;99.90
18998;DHT22;9632;51.018;4.284;2022-11-04T14:21:18;14.00;99.90
18998;DHT22;9632;51.018;4.284;2022-11-04T14:23:53;13.90;99.90
18998;DHT22;9632;51.018;4.284;2022-11-04T14:29:21;13.80;99.90
18998;DHT22;9632;51.018;4.284;2022-11-04T14:31:55;13.80;99.90
18998;DHT22;9632;51.018;4.284;2022-11-04T14:36:57;13.80;99.90
18998;DHT22;9632;51.018;4.284;2022-11-04T14:39:28;13.70;99.90
18998;DHT22;9632;51.018;4.284;2022-11-04T14:41:59;13.70;99.90
18998;DHT22;9632;51.018;4.284;2022-11-04T14:44:42;13.80;99.90
18998;DHT22;9632;51.018;4.284;2022-11-04T14:47:26;13.80;99.90
18998;DHT22;9632;51.018;4.284;2022-11-04T14:57:51;13.80;99.90
18998;DHT22;9632;51.018;4.284;2022-11-04T15:05:34;13.70;99.90
18998;DHT22;9632;51.018;4.284;2022-11-04T15:08:27;13.70;99.90
18998;DHT22;9632;51.018;4.284;2022-11-04T15:13:27;13.70;99.90
18998;DHT22;9632;51.018;4.284;2022-11-04T15:15:55;13.70;99.90
18998;DHT22;9632;51.018;4.284;2022-11-04T15:18:26;13.70;99.90
18998;DHT22;9632;51.018;4.284;2022-11-04T15:20:56;13.60;99.90
18998;DHT22;9632;51.018;4.284;2022-11-04T15:23:31;13.60;99.90
18998;DHT22;9632;51.018;4.284;2022-11-04T15:25:58;13.50;99.90
18998;DHT22;9632;51.018;4.284;2022-11-04T15:28:31;13.50;99.90
18998;DHT22;9632;51.018;4.284;2022-11-04T15:33:34;13.40;99.90
18998;DHT22;9632;51.018;4.284;2022-11-04T15:36:02;13.40;99.90
18998;DHT22;9632;51.018;4.284;2022-11-04T15:38:28;13.40;99.90
18998;DHT22;9632;51.018;4.284;2022-11-04T15:40:55;13.30;99.90
18998;DHT22;9632;51.018;4.284;2022-11-04T15:43:42;13.30;99.90
18998;DHT22;9632;51.018;4.284;2022-11-04T15:46:18;13.30;99.90
18998;DHT22;9632;51.018;4.284;2022-11-04T15:51:26;13.30;99.90
18998;DHT22;9632;51.018;4.284;2022-11-04T15:53:53;13.20;99.90
18998;DHT22;9632;51.018;4.284;2022-11-04T15:56:23;13.20;99.90
18998;DHT22;9632;51.018;4.284;2022-11-04T15:58:51;13.20;99.90
18998;DHT22;9632;51.018;4.284;2022-11-04T16:01:19;13.20;99.90
18998;DHT22;9632;51.018;4.284;2022-11-04T16:03:53;13.20;99.90
18998;DHT22;9632;51.018;4.284;2022-11-04T16:06:37;13.20;99.90
18998;DHT22;9632;51.018;4.284;2022-11-04T16:09:19;13.30;99.90
18998;DHT22;9632;51.018;4.284;2022-11-04T16:14:49;13.20;99.90
18998;DHT22;9632;51.018;4.284;2022-11-04T16:17:15;13.20;99.90
18998;DHT22;9632;51.018;4.284;2022-11-04T16:19:45;13.20;99.90
18998;DHT22;9632;51.018;4.284;2022-11-04T16:22:18;13.20;99.90
18998;DHT22;9632;51.018;4.284;2022-11-04T16:24:46;13.10;99.90
18998;DHT22;9632;51.018;4.284;2022-11-04T16:27:17;13.10;99.90
18998;DHT22;9632;51.018;4.284;2022-11-04T16:29:51;13.10;99.90
18998;DHT22;9632;51.018;4.284;2022-11-04T16:32:24;13.10;99.90
18998;DHT22;9632;51.018;4.284;2022-11-04T16:34:53;13.10;99.90
18998;DHT22;9632;51.018;4.284;2022-11-04T16:37:20;13.10;99.90
18998;DHT22;9632;51.018;4.284;2022-11-04T16:39:45;13.20;99.90
18998;DHT22;9632;51.018;4.284;2022-11-04T16:42:12;13.10;99.90
18998;DHT22;9632;51.018;4.284;2022-11-04T16:44:38;13.10;99.90
18998;DHT22;9632;51.018;4.284;2022-11-04T16:47:04;13.10;99.90
18998;DHT22;9632;51.018;4.284;2022-11-04T16:49:30;13.10;99.90
18998;DHT22;9632;51.018;4.284;2022-11-04T16:52:01;13.10;99.90
18998;DHT22;9632;51.018;4.284;2022-11-04T16:54:30;13.10;99.90
18998;DHT22;9632;51.018;4.284;2022-11-04T16:56:55;13.00;99.90
18998;DHT22;9632;51.018;4.284;2022-11-04T16:59:23;13.00;99.90
18998;DHT22;9632;51.018;4.284;2022-11-04T17:01:48;13.00;99.90
18998;DHT22;9632;51.018;4.284;2022-11-04T17:04:14;13.00;99.90
18998;DHT22;9632;51.018;4.284;2022-11-04T17:06:40;12.90;99.90
18998;DHT22;9632;51.018;4.284;2022-11-04T17:09:16;12.90;99.90
18998;DHT22;9632;51.018;4.284;2022-11-04T17:11:43;12.80;99.90
18998;DHT22;9632;51.018;4.284;2022-11-04T17:14:08;12.80;99.90
18998;DHT22;9632;51.018;4.284;2022-11-04T17:16:34;12.80;99.90
18998;DHT22;9632;51.018;4.284;2022-11-04T17:18:59;12.80;99.90
18998;DHT22;9632;51.018;4.284;2022-11-04T17:21:25;12.70;99.90
18998;DHT22;9632;51.018;4.284;2022-11-04T17:23:51;12.70;99.90
18998;DHT22;9632;51.018;4.284;2022-11-04T17:26:17;12.60;99.90
18998;DHT22;9632;51.018;4.284;2022-11-04T17:28:43;12.60;99.90
18998;DHT22;9632;51.018;4.284;2022-11-04T17:31:15;12.60;99.90
18998;DHT22;9632;51.018;4.284;2022-11-04T17:33:42;12.50;99.90
18998;DHT22;9632;51.018;4.284;2022-11-04T17:36:13;12.50;99.90
18998;DHT22;9632;51.018;4.284;2022-11-04T17:38:39;12.50;99.90
18998;DHT22;9632;51.018;4.284;2022-11-04T17:41:08;12.40;99.90
18998;DHT22;9632;51.018;4.284;2022-11-04T17:43:52;12.30;99.90
18998;DHT22;9632;51.018;4.284;2022-11-04T17:46:28;12.30;99.90
18998;DHT22;9632;51.018;4.284;2022-11-04T17:49:12;12.30;99.90
18998;DHT22;9632;51.018;4.284;2022-11-04T17:51:40;12.20;99.90
18998;DHT22;9632;51.018;4.284;2022-11-04T17:54:06;12.20;99.90
18998;DHT22;9632;51.018;4.284;2022-11-04T17:56:31;12.10;99.90
18998;DHT22;9632;51.018;4.284;2022-11-04T17:58:59;12.10;99.90
18998;DHT22;9632;51.018;4.284;2022-11-04T18:01:25;12.10;99.90
18998;DHT22;9632;51.018;4.284;2022-11-04T18:03:51;12.10;99.90
18998;DHT22;9632;51.018;4.284;2022-11-04T18:06:21;12.10;99.90
18998;DHT22;9632;51.018;4.284;2022-11-04T18:08:47;12.00;99.90
18998;DHT22;9632;51.018;4.284;2022-11-04T18:11:14;11.90;99.90
18998;DHT22;9632;51.018;4.284;2022-11-04T18:13:59;11.90;99.90
18998;DHT22;9632;51.018;4.284;2022-11-04T18:16:25;11.90;99.90
18998;DHT22;9632;51.018;4.284;2022-11-04T18:18:51;11.80;99.90
18998;DHT22;9632;51.018;4.284;2022-11-04T18:21:17;11.80;99.90
18998;DHT22;9632;51.018;4.284;2022-11-04T18:23:43;11.70;99.90
18998;DHT22;9632;51.018;4.284;2022-11-04T18:26:09;11.80;99.90
18998;DHT22;9632;51.018;4.284;2022-11-04T18:28:38;11.70;99.90
18998;DHT22;9632;51.018;4.284;2022-11-04T18:31:08;11.70;99.90
18998;DHT22;9632;51.018;4.284;2022-11-04T18:33:35;11.60;99.90
18998;DHT22;9632;51.018;4.284;2022-11-04T18:36:04;11.60;99.90
18998;DHT22;9632;51.018;4.284;2022-11-04T18:38:30;11.50;99.90
18998;DHT22;9632;51.018;4.284;2022-11-04T18:40:56;11.50;99.90
18998;DHT22;9632;51.018;4.284;2022-11-04T18:43:22;11.40;99.90
18998;DHT22;9632;51.018;4.284;2022-11-04T18:45:48;11.40;99.90
18998;DHT22;9632;51.018;4.284;2022-11-04T18:48:14;11.30;99.90
18998;DHT22;9632;51.018;4.284;2022-11-04T18:50:41;11.30;99.90
18998;DHT22;9632;51.018;4.284;2022-11-04T18:53:07;11.20;99.90
18998;DHT22;9632;51.018;4.284;2022-11-04T18:55:32;11.20;99.90
18998;DHT22;9632;51.018;4.284;2022-11-04T18:57:58;11.30;99.90
18998;DHT22;9632;51.018;4.284;2022-11-04T19:00:24;11.20;99.90
18998;DHT22;9632;51.018;4.284;2022-11-04T19:02:50;11.10;99.90
18998;DHT22;9632;51.018;4.284;2022-11-04T19:05:16;11.10;99.90
18998;DHT22;9632;51.018;4.284;2022-11-04T19:07:41;11.10;99.90